Time;durP1;ratioP1;P1;durP2;ratioP2;P2;SDS_P1;SDS_P2;PMS_P1;PMS_P2;Temp;Humidity;BMP_temperature;BMP_pressure;BME280_temperature;BME280_humidity;BME280_pressure;Samples;Min_cycle;Max_cycle;Signal;HPM_P1;HPM_P2
2021/07/01 00:00:49;;;;;;;4.87;3.47;;;;;;;15.59;78.39;98718.79;1764409;80;20938;-65
2021/07/01 00:03:17;;;;;;;3.67;3.35;;;;;;;15.53;78.46;98721.94;1764516;80;21394;-64
2021/07/01 00:05:44;;;;;;;3.83;3.43;;;;;;;15.47;78.58;98723.77;1760250;80;20886;-64
2021/07/01 00:08:11;;;;;;;5.42;3.20;;;;;;;15.42;78.67;98713.13;1766523;80;20936;-64
2021/07/01 00:10:38;;;;;;;4.53;3.37;;;;;;;15.38;78.72;98713.53;1761740;80;20899;-65
2021/07/01 00:13:05;;;;;;;3.45;3.15;;;;;;;15.31;78.76;98713.19;1756982;80;21005;-65
2021/07/01 00:15:34;;;;;;;5.28;3.15;;;;;;;15.30;78.82;98716.80;1757860;80;21029;-65
2021/07/01 00:18:02;;;;;;;3.55;3.20;;;;;;;15.28;78.89;98722.66;1763338;80;21046;-65
2021/07/01 00:20:30;;;;;;;4.35;2.85;;;;;;;15.26;78.95;98723.25;1763891;80;21448;-64
2021/07/01 00:22:56;;;;;;;3.20;2.90;;;;;;;15.25;78.97;98720.77;1763889;80;21497;-65
2021/07/01 00:25:23;;;;;;;4.80;3.25;;;;;;;15.23;79.09;98720.87;1761986;80;20875;-65
2021/07/01 00:27:51;;;;;;;3.40;3.10;;;;;;;15.22;79.08;98713.96;1734748;81;21089;-64
2021/07/01 00:30:20;;;;;;;4.40;3.08;;;;;;;15.20;79.14;98721.13;1738571;81;20982;-65
2021/07/01 00:37:05;;;;;;;3.95;2.87;;;;;;;15.18;79.34;98707.30;1853273;75;22628;-64
2021/07/01 00:39:31;;;;;;;;;;;;;;;15.10;79.27;98711.03;1822156;77;20953;-64
2021/07/01 00:41:58;;;;;;;4.23;3.40;;;;;;;15.07;79.39;98709.95;1825914;76;21512;-64
2021/07/01 00:44:25;;;;;;;3.87;3.40;;;;;;;15.04;79.38;98700.55;1832730;76;22398;-64
2021/07/01 00:46:51;;;;;;;3.47;3.17;;;;;;;15.02;79.38;98699.83;1831574;76;21143;-64
2021/07/01 00:49:18;;;;;;;5.63;3.10;;;;;;;15.00;79.46;98697.31;1829202;76;21130;-64
2021/07/01 00:51:45;;;;;;;4.93;3.53;;;;;;;15.00;79.57;98696.48;1824537;76;20987;-64
2021/07/01 00:54:13;;;;;;;4.20;3.65;;;;;;;14.97;79.53;98697.56;1829758;76;21117;-64
2021/07/01 00:56:40;;;;;;;6.53;3.80;;;;;;;14.95;79.51;98692.91;1829262;77;21500;-65
2021/07/01 00:59:10;;;;;;;4.90;3.52;;;;;;;14.95;79.60;98688.96;1828998;76;21009;-64
2021/07/01 01:01:38;;;;;;;4.22;3.83;;;;;;;14.92;79.58;98687.90;1816023;76;20973;-64
2021/07/01 01:04:05;;;;;;;4.30;3.75;;;;;;;14.91;79.67;98687.55;1832663;76;20964;-65
2021/07/01 01:06:32;;;;;;;3.77;3.30;;;;;;;14.89;79.71;98686.84;1825974;76;21130;-65
2021/07/01 01:09:01;;;;;;;4.20;3.85;;;;;;;14.88;79.77;98679.92;1774460;79;20922;-64
2021/07/01 01:11:28;;;;;;;3.95;3.50;;;;;;;14.86;79.77;98675.27;1753540;79;20947;-65
2021/07/01 01:13:56;;;;;;;4.10;3.27;;;;;;;14.85;79.80;98676.72;1751407;80;21093;-65
2021/07/01 01:16:23;;;;;;;6.42;3.72;;;;;;;14.82;79.82;98679.11;1766245;79;20987;-65
2021/07/01 01:18:50;;;;;;;3.92;3.62;;;;;;;14.79;79.84;98672.80;1764727;79;21326;-65
2021/07/01 01:21:24;;;;;;;7.15;3.87;;;;;;;14.79;79.93;98672.80;1750441;79;21025;-65
2021/07/01 01:23:52;;;;;;;3.65;3.27;;;;;;;14.79;80.00;98672.80;1777184;79;20999;-65
2021/07/01 01:26:19;;;;;;;3.92;3.50;;;;;;;14.79;80.03;98676.73;1761358;79;21020;-65
2021/07/01 01:28:46;;;;;;;7.05;3.98;;;;;;;14.77;80.04;98672.08;1757174;80;20997;-65
2021/07/01 01:31:13;;;;;;;6.13;3.87;;;;;;;14.75;80.01;98666.11;1766064;80;22323;-64
2021/07/01 01:33:40;;;;;;;7.30;3.70;;;;;;;14.74;80.02;98667.91;1761186;80;20962;-65
2021/07/01 01:36:07;;;;;;;4.45;3.85;;;;;;;14.74;80.04;98671.02;1760440;79;20871;-65
2021/07/01 01:38:33;;;;;;;3.60;3.30;;;;;;;14.73;80.03;98666.70;1761656;79;21012;-64
2021/07/01 01:41:00;;;;;;;4.10;3.80;;;;;;;14.71;80.07;98667.33;1763860;79;20950;-64
2021/07/01 01:43:27;;;;;;;3.77;3.47;;;;;;;14.69;80.10;98659.56;1763824;80;21530;-65
2021/07/01 01:45:54;;;;;;;3.80;3.50;;;;;;;14.70;80.24;98663.02;1768985;79;20938;-65
2021/07/01 01:48:22;;;;;;;4.22;3.90;;;;;;;14.69;80.27;98658.73;1764375;79;21582;-65
2021/07/01 01:50:49;;;;;;;5.05;3.67;;;;;;;14.69;80.31;98654.30;1766428;79;21037;-65
2021/07/01 01:53:16;;;;;;;7.42;4.25;;;;;;;14.70;80.39;98663.88;1768036;79;20926;-65
2021/07/01 01:55:43;;;;;;;6.45;3.87;;;;;;;14.72;80.42;98655.84;1753811;79;21161;-64
2021/07/01 01:58:10;;;;;;;3.45;3.15;;;;;;;14.75;80.53;98651.17;1757925;80;21143;-65
2021/07/01 02:00:37;;;;;;;3.70;3.40;;;;;;;14.80;80.55;98649.49;1762810;79;21529;-65
2021/07/01 02:03:04;;;;;;;4.65;3.25;;;;;;;14.85;80.58;98655.21;1756437;79;20933;-65
2021/07/01 02:05:31;;;;;;;4.22;3.83;;;;;;;14.87;80.54;98648.50;1759916;79;20942;-64
2021/07/01 02:07:58;;;;;;;4.90;3.67;;;;;;;14.92;80.58;98648.96;1759538;79;21289;-65
2021/07/01 02:10:28;;;;;;;4.78;3.80;;;;;;;14.93;80.61;98651.48;1760913;80;20978;-65
2021/07/01 02:12:56;;;;;;;3.83;3.50;;;;;;;14.96;80.64;98653.02;1764394;79;21062;-65
2021/07/01 02:15:25;;;;;;;4.17;3.60;;;;;;;14.97;80.64;98646.30;1762662;79;21013;-64
2021/07/01 02:17:52;;;;;;;4.12;3.30;;;;;;;15.00;80.71;98643.91;1759180;79;20987;-65
2021/07/01 02:20:24;;;;;;;3.52;3.22;;;;;;;15.02;80.72;98649.88;1764218;79;21138;-65
2021/07/01 02:22:51;;;;;;;5.15;3.72;;;;;;;15.05;80.76;98641.73;1760574;79;21615;-65
2021/07/01 02:25:18;;;;;;;;;;;;;;;15.09;80.74;98642.31;1761709;79;20986;-65
2021/07/01 02:27:45;;;;;;;3.55;3.25;;;;;;;15.10;80.82;98636.11;1758881;79;20170;-65
2021/07/01 02:30:16;;;;;;;5.22;3.60;;;;;;;15.09;80.76;98633.94;1760266;80;21785;-65
2021/07/01 02:32:43;;;;;;;4.55;3.30;;;;;;;15.12;80.85;98634.99;1768769;79;21059;-65
2021/07/01 02:35:11;;;;;;;5.15;3.47;;;;;;;15.17;80.88;98638.08;1767476;79;21032;-65
2021/07/01 02:37:40;;;;;;;3.30;3.02;;;;;;;15.23;80.89;98631.47;1755864;79;21028;-65
2021/07/01 02:40:12;;;;;;;4.33;2.90;;;;;;;15.30;80.93;98629.18;1764237;79;20923;-65
2021/07/01 02:42:39;;;;;;;4.42;3.50;;;;;;;15.36;80.89;98634.75;1763773;79;20982;-65
2021/07/01 02:45:08;;;;;;;3.22;2.95;;;;;;;15.43;80.88;98626.70;1754611;80;22343;-65
2021/07/01 02:47:35;;;;;;;3.33;3.00;;;;;;;15.69;81.22;98619.73;1758247;79;20997;-66
2021/07/01 02:50:06;;;;;;;2.83;2.60;;;;;;;16.41;81.55;98616.07;1763914;79;20992;-65
2021/07/01 02:52:33;;;;;;;2.72;2.52;;;;;;;17.23;81.00;98615.66;1768301;79;21009;-65
2021/07/01 02:55:00;;;;;;;2.50;2.30;;;;;;;17.97;80.44;98614.05;1763037;80;21017;-66
2021/07/01 02:57:26;;;;;;;3.47;2.80;;;;;;;18.26;79.18;98615.23;1764820;79;22521;-66
2021/07/01 02:59:53;;;;;;;3.72;2.70;;;;;;;18.05;78.62;98615.97;1773660;79;20978;-66
2021/07/01 03:02:20;;;;;;;2.77;2.58;;;;;;;17.87;78.59;98614.11;1762833;80;21646;-66
2021/07/01 03:04:46;;;;;;;3.47;2.77;;;;;;;17.65;78.78;98615.27;1762107;79;20993;-66
2021/07/01 03:07:13;;;;;;;6.42;2.85;;;;;;;17.47;78.85;98616.98;1758123;79;20962;-66
2021/07/01 03:09:39;;;;;;;3.22;2.60;;;;;;;17.29;79.02;98626.63;1760454;80;22286;-65
2021/07/01 03:12:07;;;;;;;4.40;2.40;;;;;;;17.12;79.06;98626.37;1763020;79;20974;-65
2021/07/01 03:14:34;;;;;;;2.98;2.50;;;;;;;17.01;79.26;98634.43;1755490;80;20940;-66
2021/07/01 03:17:02;;;;;;;9.48;2.90;;;;;;;16.92;79.24;98636.10;1757290;79;21536;-65
2021/07/01 03:19:28;;;;;;;2.77;2.45;;;;;;;16.86;79.37;98632.71;1756915;80;20955;-66
2021/07/01 03:21:55;;;;;;;3.33;2.60;;;;;;;16.77;79.38;98623.80;1765248;79;22101;-65
2021/07/01 03:24:22;;;;;;;2.98;2.60;;;;;;;16.71;79.43;98633.55;1758591;79;21009;-65
2021/07/01 03:26:49;;;;;;;6.75;2.52;;;;;;;16.68;79.49;98628.56;1763149;79;21136;-66
2021/07/01 03:29:15;;;;;;;4.67;2.60;;;;;;;16.68;79.52;98628.56;1769141;79;20986;-65
2021/07/01 03:31:42;;;;;;;3.00;2.75;;;;;;;16.71;79.65;98628.28;1751504;79;21069;-67
2021/07/01 03:34:09;;;;;;;5.00;3.08;;;;;;;16.82;79.68;98630.48;1801237;78;21095;-66
2021/07/01 03:36:35;;;;;;;2.90;2.60;;;;;;;16.94;79.65;98628.03;1779877;78;21093;-66
2021/07/01 03:39:05;;;;;;;3.27;2.67;;;;;;;17.05;79.48;98629.20;1770622;78;22284;-66
2021/07/01 03:41:31;;;;;;;6.10;2.80;;;;;;;17.10;79.35;98633.58;1801553;78;21024;-66
2021/07/01 03:43:58;;;;;;;3.75;2.50;;;;;;;17.17;79.37;98625.95;1747950;79;21057;-65
2021/07/01 03:46:25;;;;;;;4.62;3.05;;;;;;;17.20;79.31;98631.77;1793654;78;21636;-67
2021/07/01 03:48:52;;;;;;;7.53;2.90;;;;;;;17.22;79.30;98635.11;1765973;80;21012;-66
2021/07/01 03:51:18;;;;;;;3.42;2.30;;;;;;;17.26;79.35;98636.14;1808197;78;21076;-65
2021/07/01 03:53:45;;;;;;;4.35;2.72;;;;;;;17.30;79.26;98631.74;1799326;78;21583;-65
2021/07/01 03:56:12;;;;;;;5.85;3.05;;;;;;;17.32;79.16;98635.58;1793715;78;20931;-65
2021/07/01 03:58:39;;;;;;;;;;;;;;;17.32;79.13;98629.80;1790319;78;21575;-66
2021/07/01 04:01:05;;;;;;;4.83;3.25;;;;;;;17.33;79.14;98634.09;1799297;78;20142;-66
2021/07/01 04:03:32;;;;;;;3.00;2.67;;;;;;;17.34;79.14;98634.95;1784891;78;20970;-66
2021/07/01 04:05:59;;;;;;;2.85;2.27;;;;;;;17.31;79.00;98640.48;1796804;78;20977;-66
2021/07/01 04:08:25;;;;;;;2.73;2.53;;;;;;;17.28;79.07;98638.13;1792579;78;20931;-65
2021/07/01 04:10:52;;;;;;;3.10;2.80;;;;;;;17.21;79.02;98633.43;1794579;78;21278;-65
2021/07/01 04:13:19;;;;;;;3.17;2.60;;;;;;;17.21;79.13;98640.02;1782207;78;21457;-66
2021/07/01 04:15:45;;;;;;;3.08;2.70;;;;;;;17.22;79.10;98628.52;1769680;78;21024;-66
2021/07/01 04:18:16;;;;;;;4.92;3.50;;;;;;;17.21;79.13;98633.43;1767015;78;21017;-65
2021/07/01 04:20:43;;;;;;;3.65;2.83;;;;;;;17.22;79.05;98631.16;1761132;79;21572;-66
2021/07/01 04:23:10;;;;;;;4.05;3.00;;;;;;;17.18;78.97;98633.71;1766071;79;21701;-65
2021/07/01 04:25:36;;;;;;;6.75;3.12;;;;;;;17.17;79.06;98633.88;1763048;80;21621;-66
2021/07/01 04:28:04;;;;;;;4.33;2.80;;;;;;;17.17;79.01;98635.19;1763987;80;21387;-66
2021/07/01 04:30:31;;;;;;;2.90;2.70;;;;;;;17.19;79.04;98644.59;1758056;80;21540;-66
2021/07/01 04:32:57;;;;;;;3.72;3.20;;;;;;;17.25;79.12;98646.33;1754872;80;21023;-65
2021/07/01 04:35:24;;;;;;;5.30;2.80;;;;;;;17.26;78.99;98646.70;1764671;79;22322;-65
2021/07/01 04:37:51;;;;;;;3.40;3.10;;;;;;;17.29;79.00;98653.01;1759630;79;20903;-65
2021/07/01 04:40:17;;;;;;;6.25;3.17;;;;;;;17.32;79.01;98660.64;1770513;79;21536;-66
2021/07/01 04:42:44;;;;;;;4.80;3.25;;;;;;;17.34;78.98;98660.02;1762610;79;21006;-66
2021/07/01 04:45:12;;;;;;;3.52;3.20;;;;;;;17.38;79.01;98662.70;1764427;80;21571;-66
2021/07/01 04:47:38;;;;;;;3.25;2.72;;;;;;;17.41;79.03;98670.33;1761383;79;21105;-65
2021/07/01 04:50:06;;;;;;;3.58;3.10;;;;;;;17.49;79.04;98673.09;1757884;79;20979;-66
2021/07/01 04:52:33;;;;;;;7.35;3.45;;;;;;;17.55;78.99;98668.56;1752222;79;21023;-66
2021/07/01 04:55:00;;;;;;;5.75;3.08;;;;;;;17.60;78.88;98678.22;1761010;79;20996;-65
2021/07/01 04:57:27;;;;;;;3.60;3.30;;;;;;;17.65;78.79;98681.27;1769518;79;21032;-66
2021/07/01 04:59:53;;;;;;;5.53;3.50;;;;;;;17.66;78.75;98682.92;1757559;79;21529;-65
2021/07/01 05:02:20;;;;;;;5.10;3.50;;;;;;;17.67;78.76;98687.24;1769901;79;20990;-65
2021/07/01 05:04:47;;;;;;;5.22;3.50;;;;;;;17.70;78.69;98685.27;1756795;79;22155;-66
2021/07/01 05:07:13;;;;;;;4.72;3.35;;;;;;;17.72;78.65;98688.11;1764436;80;21005;-66
2021/07/01 05:09:40;;;;;;;5.95;3.47;;;;;;;17.75;78.58;98693.59;1761743;79;21010;-66
2021/07/01 05:12:07;;;;;;;4.20;3.22;;;;;;;17.75;78.54;98693.59;1754581;79;21134;-66
2021/07/01 05:14:34;;;;;;;4.58;3.45;;;;;;;17.75;78.44;98688.32;1755251;80;21544;-66
2021/07/01 05:17:00;;;;;;;4.58;3.52;;;;;;;17.73;78.42;98684.98;1751744;79;20977;-66
2021/07/01 05:19:27;;;;;;;5.90;3.50;;;;;;;17.73;78.47;98677.06;1757170;79;21323;-65
2021/07/01 05:21:53;;;;;;;6.25;3.15;;;;;;;17.74;78.31;98676.10;1763153;79;20937;-66
2021/07/01 05:24:20;;;;;;;7.40;3.05;;;;;;;17.73;78.37;98669.14;1760068;79;21594;-66
2021/07/01 05:26:47;;;;;;;4.42;3.42;;;;;;;17.73;78.34;98664.72;1772871;79;22158;-66
2021/07/01 05:29:14;;;;;;;4.10;3.52;;;;;;;17.78;78.38;98661.63;1756913;79;20995;-66
2021/07/01 05:31:41;;;;;;;4.55;3.58;;;;;;;17.95;78.50;98660.89;1777543;78;21245;-65
2021/07/01 05:34:08;;;;;;;5.65;3.25;;;;;;;19.13;79.73;98654.77;1761576;79;21040;-65
2021/07/01 05:36:34;;;;;;;7.03;4.17;;;;;;;20.81;79.09;98653.45;1767851;79;23840;-66
2021/07/01 05:39:01;;;;;;;8.45;3.55;;;;;;;22.23;77.68;98646.32;1766618;78;21046;-66
2021/07/01 05:41:28;;;;;;;8.20;3.05;;;;;;;23.52;76.85;98646.09;1762530;79;28406;-63
2021/07/01 05:43:55;;;;;;;5.37;2.90;;;;;;;24.50;74.78;98643.66;1793072;78;20954;-64
2021/07/01 05:46:22;;;;;;;4.22;2.80;;;;;;;25.28;74.73;98647.84;1798888;78;20979;-64
2021/07/01 05:48:48;;;;;;;;;;;;;;;26.20;74.09;98648.97;1779627;79;21471;-64
2021/07/01 05:51:16;;;;;;;5.15;2.37;;;;;;;26.55;71.74;98648.42;1769694;79;20474;-64
2021/07/01 05:53:54;;;;;;;3.40;2.83;;;;;;;26.14;70.91;98655.64;1794798;78;21100;-64
2021/07/01 05:56:11;;;;;;;3.75;2.40;;;;;;;25.19;69.93;98669.34;1790687;78;20923;-64
2021/07/01 05:58:37;;;;;;;;;;;;;;;24.30;70.14;98662.08;1782847;78;21526;-64
2021/07/01 06:01:05;;;;;;;7.95;3.22;;;;;;;23.60;70.03;98664.67;1775459;79;21188;-63
2021/07/01 06:03:32;;;;;;;3.95;2.85;;;;;;;22.88;70.19;98665.06;1777597;79;21465;-64
2021/07/01 06:06:09;;;;;;;5.53;3.12;;;;;;;22.36;70.81;98667.05;1780490;79;21488;-63
2021/07/01 06:08:36;;;;;;;;;;;;;;;22.13;71.19;98664.62;1785441;78;20986;-64
2021/07/01 06:11:09;;;;;;;5.90;3.67;;;;;;;21.95;71.08;98670.64;1796634;78;20106;-65
2021/07/01 06:13:40;;;;;;;6.60;3.60;;;;;;;21.76;71.27;98661.73;1791434;78;21126;-64
2021/07/01 06:16:13;;;;;;;4.42;3.65;;;;;;;21.57;71.06;98666.94;1792519;78;20958;-65
2021/07/01 06:18:41;;;;;;;7.20;3.37;;;;;;;21.29;70.85;98673.07;1786923;78;21068;-66
2021/07/01 06:21:09;;;;;;;5.40;3.17;;;;;;;21.00;70.66;98675.69;1763051;79;21038;-65
2021/07/01 06:23:40;;;;;;;5.15;3.60;;;;;;;20.74;70.83;98675.33;1753487;80;21555;-65
2021/07/01 06:26:09;;;;;;;6.92;3.87;;;;;;;20.56;70.86;98677.30;1770164;78;21101;-67
2021/07/01 06:28:40;;;;;;;4.90;3.67;;;;;;;20.44;71.08;98681.19;1795793;78;21477;-66
2021/07/01 06:31:05;;;;;;;6.03;3.72;;;;;;;20.45;71.31;98677.56;1788235;78;21037;-64
2021/07/01 06:33:32;;;;;;;7.45;3.85;;;;;;;20.42;70.79;98679.21;1768581;80;20943;-65
2021/07/01 06:36:00;;;;;;;7.53;3.50;;;;;;;20.30;70.74;98678.14;1797815;77;23630;-66
2021/07/01 06:38:30;;;;;;;4.47;4.00;;;;;;;20.26;70.82;98672.84;1806949;78;21297;-66
2021/07/01 06:41:01;;;;;;;9.00;3.75;;;;;;;20.28;70.94;98675.34;1783091;78;22463;-65
2021/07/01 06:43:28;;;;;;;7.22;4.15;;;;;;;20.26;70.71;98678.64;1801138;78;21077;-64
2021/07/01 06:45:57;;;;;;;6.12;3.72;;;;;;;20.21;70.57;98680.44;1789013;78;21532;-65
2021/07/01 06:48:25;;;;;;;7.83;4.20;;;;;;;20.12;70.57;98682.72;1782884;78;21002;-65
2021/07/01 06:50:56;;;;;;;9.90;3.62;;;;;;;20.12;70.71;98677.42;1794374;78;21085;-64
2021/07/01 06:53:23;;;;;;;4.45;3.62;;;;;;;20.11;70.61;98682.40;1762632;79;21511;-66
2021/07/01 06:55:51;;;;;;;6.58;4.12;;;;;;;20.02;70.44;98688.63;1768173;78;21064;-65
2021/07/01 06:58:22;;;;;;;4.83;3.45;;;;;;;19.93;70.49;98693.55;1795141;78;20992;-66
2021/07/01 07:00:49;;;;;;;6.15;3.72;;;;;;;19.77;70.25;98693.78;1801967;78;21117;-65
2021/07/01 07:03:19;;;;;;;4.50;4.10;;;;;;;19.63;70.50;98695.64;1760643;80;21663;-65
2021/07/01 07:05:53;;;;;;;4.80;3.77;;;;;;;19.60;70.80;98698.60;1776317;79;20965;-64
2021/07/01 07:08:22;;;;;;;4.85;4.12;;;;;;;20.03;71.54;98700.91;1781146;78;21001;-65
2021/07/01 07:10:52;;;;;;;9.53;3.90;;;;;;;21.24;71.87;98699.60;1761101;80;20989;-65
2021/07/01 07:13:19;;;;;;;6.10;3.62;;;;;;;22.15;70.21;98696.33;1757181;79;21151;-65
2021/07/01 07:15:49;;;;;;;6.00;3.62;;;;;;;22.43;69.52;98694.08;1739173;79;21143;-65
2021/07/01 07:18:25;;;;;;;4.72;3.55;;;;;;;22.40;69.15;98695.77;1770410;79;21049;-64
2021/07/01 07:20:58;;;;;;;6.90;3.52;;;;;;;22.25;68.74;98694.34;1767967;79;21670;-65
2021/07/01 07:23:38;;;;;;;8.35;4.15;;;;;;;22.02;68.76;98696.89;1767713;79;21513;-65
2021/07/01 07:26:09;;;;;;;5.78;3.62;;;;;;;21.78;68.66;98707.56;1768545;79;20899;-65
2021/07/01 07:28:38;;;;;;;7.12;4.12;;;;;;;21.62;68.71;98707.08;1765066;80;21903;-66
2021/07/01 07:31:06;;;;;;;6.50;3.65;;;;;;;21.47;68.52;98705.61;1763092;80;21667;-64
2021/07/01 07:33:33;;;;;;;5.33;4.03;;;;;;;21.40;68.47;98697.48;1743287;80;21081;-65
2021/07/01 07:36:01;;;;;;;14.13;3.90;;;;;;;21.29;68.75;98702.28;1775062;79;21519;-65
2021/07/01 07:38:31;;;;;;;4.37;3.72;;;;;;;21.29;68.49;98700.95;1766435;79;20993;-65
2021/07/01 07:40:58;;;;;;;6.92;4.05;;;;;;;21.08;68.11;98703.56;1765784;79;21433;-66
2021/07/01 07:43:29;;;;;;;;;;;;;;;20.92;68.32;98704.39;1765552;80;21067;-65
2021/07/01 07:45:56;;;;;;;4.35;3.70;;;;;;;20.76;67.93;98707.84;1762587;80;20297;-64
2021/07/01 07:48:23;;;;;;;6.10;3.12;;;;;;;20.60;68.24;98713.09;1771954;79;21144;-65
2021/07/01 07:50:54;;;;;;;5.20;3.37;;;;;;;20.61;68.52;98720.05;1764130;79;21588;-65
2021/07/01 07:53:32;;;;;;;17.80;5.45;;;;;;;20.89;68.75;98718.46;1760575;79;21153;-65
2021/07/01 07:56:08;;;;;;;4.35;3.58;;;;;;;21.18;68.60;98723.34;1756699;79;21047;-65
2021/07/01 07:58:43;;;;;;;6.60;3.58;;;;;;;21.43;68.26;98725.54;1762330;79;20982;-65
2021/07/01 08:01:11;;;;;;;7.87;3.80;;;;;;;21.61;67.95;98723.52;1765129;79;20962;-65
2021/07/01 08:03:40;;;;;;;7.25;3.25;;;;;;;21.91;68.07;98725.16;1767147;79;21052;-65
2021/07/01 08:06:09;;;;;;;6.55;3.22;;;;;;;22.30;67.98;98723.08;1755104;80;21119;-65
2021/07/01 08:08:42;;;;;;;4.72;2.75;;;;;;;22.68;67.78;98725.39;1756276;79;20954;-65
2021/07/01 08:11:10;;;;;;;2.75;2.55;;;;;;;22.94;67.25;98726.42;1760969;80;21049;-66
2021/07/01 08:13:40;;;;;;;8.98;3.00;;;;;;;22.91;66.88;98729.44;1761339;79;21098;-65
2021/07/01 08:16:07;;;;;;;4.70;2.75;;;;;;;22.96;66.74;98729.75;1762397;79;21053;-65
2021/07/01 08:18:40;;;;;;;6.55;3.27;;;;;;;22.86;66.17;98733.63;1760397;79;21271;-65
2021/07/01 08:21:17;;;;;;;5.55;3.30;;;;;;;22.64;66.17;98741.39;1757621;79;21188;-65
2021/07/01 08:23:44;;;;;;;6.72;2.92;;;;;;;22.65;66.29;98746.20;1765942;80;21061;-65
2021/07/01 08:26:12;;;;;;;7.10;2.80;;;;;;;22.64;65.86;98747.21;1750685;80;21010;-65
2021/07/01 08:28:40;;;;;;;5.78;2.72;;;;;;;22.45;65.47;98758.58;1762831;79;21627;-66
2021/07/01 08:31:19;;;;;;;12.55;3.40;;;;;;;22.23;65.76;98756.66;1763570;80;21139;-66
2021/07/01 08:33:49;;;;;;;3.17;2.58;;;;;;;22.45;66.13;98758.58;1758514;79;21010;-66
2021/07/01 08:36:20;;;;;;;9.08;2.70;;;;;;;22.73;65.86;98746.98;1762238;79;21787;-65
2021/07/01 08:38:52;;;;;;;6.35;2.72;;;;;;;22.91;65.49;98752.55;1763418;79;22220;-65
2021/07/01 08:41:23;;;;;;;2.65;2.40;;;;;;;23.18;65.06;98751.25;1759952;80;20990;-65
2021/07/01 08:43:58;;;;;;;7.42;2.62;;;;;;;23.15;64.45;98746.28;1754908;79;21496;-64
2021/07/01 08:49:56;;;;;;;4.97;2.77;;;;;;;23.60;64.32;98740.61;1750082;78;20926;-65
2021/07/01 08:52:27;;;;;;;5.35;2.40;;;;;;;23.93;64.50;98745.16;1770148;79;21099;-65
2021/07/01 08:55:06;;;;;;;12.23;2.90;;;;;;;24.04;63.78;98744.72;1755393;79;20978;-65
2021/07/01 08:57:37;;;;;;;3.90;2.50;;;;;;;24.20;63.60;98749.54;1728692;79;21152;-64
2021/07/01 09:00:14;;;;;;;4.20;2.75;;;;;;;24.16;63.26;98741.59;1671481;82;21021;-64
2021/07/01 09:02:48;;;;;;;4.85;2.83;;;;;;;24.13;63.28;98750.79;1760303;80;21003;-64
2021/07/01 09:05:18;;;;;;;7.75;2.80;;;;;;;24.59;63.37;98747.97;1752593;80;21123;-65
2021/07/01 09:07:53;;;;;;;4.35;2.55;;;;;;;24.90;62.66;98744.19;1760360;80;21024;-64
2021/07/01 09:10:22;;;;;;;7.80;2.70;;;;;;;24.76;62.48;98744.06;1760839;78;21124;-64
2021/07/01 09:12:55;;;;;;;9.70;2.33;;;;;;;25.11;62.82;98750.09;1760849;79;21054;-64
2021/07/01 09:15:23;;;;;;;4.00;2.40;;;;;;;25.29;61.71;98748.33;1750579;79;21058;-64
2021/07/01 09:17:52;;;;;;;3.33;2.45;;;;;;;25.28;61.48;98746.69;1759765;79;21465;-64
2021/07/01 09:20:27;;;;;;;2.70;2.20;;;;;;;25.41;61.12;98749.50;1770595;80;20925;-64
2021/07/01 09:22:57;;;;;;;13.70;2.67;;;;;;;25.28;60.29;98746.69;1757486;79;21615;-64
2021/07/01 09:25:26;;;;;;;6.08;2.45;;;;;;;25.02;60.25;98758.73;1758242;80;21509;-64
2021/07/01 09:27:56;;;;;;;9.45;2.87;;;;;;;24.87;60.05;98755.25;1764490;80;20976;-64
2021/07/01 09:30:28;;;;;;;7.22;1.90;;;;;;;24.99;60.98;98757.77;1743247;80;21036;-64
2021/07/01 09:33:05;;;;;;;6.42;2.80;;;;;;;25.18;59.75;98757.70;1762481;79;20961;-64
2021/07/01 09:35:37;;;;;;;10.38;2.50;;;;;;;24.95;59.30;98752.47;1761758;80;21547;-64
2021/07/01 09:38:06;;;;;;;2.05;1.85;;;;;;;24.88;59.39;98754.26;1743575;80;21006;-64
2021/07/01 09:40:39;;;;;;;4.50;2.27;;;;;;;25.19;59.69;98762.84;1758619;79;21518;-63
2021/07/01 09:43:08;;;;;;;5.70;1.70;;;;;;;25.70;59.37;98762.38;1765556;79;21483;-63
2021/07/01 09:45:37;;;;;;;4.85;1.90;;;;;;;25.59;58.13;98759.72;1706062;81;20942;-63
2021/07/01 09:48:10;;;;;;;3.50;1.98;;;;;;;25.57;57.40;98751.91;1728655;81;21091;-64
2021/07/01 09:50:45;;;;;;;11.03;2.60;;;;;;;25.37;57.76;98766.91;1762764;79;21068;-63
2021/07/01 09:53:15;;;;;;;5.35;2.17;;;;;;;25.04;57.53;98756.70;1751322;79;20966;-63
2021/07/01 09:55:44;;;;;;;4.47;1.92;;;;;;;25.17;58.36;98752.02;1740910;79;20961;-63
2021/07/01 09:58:13;;;;;;;2.60;2.08;;;;;;;25.41;57.71;98754.84;1752208;80;20995;-63
2021/07/01 10:00:44;;;;;;;4.45;2.17;;;;;;;25.44;57.23;98763.80;1748666;80;21057;-63
2021/07/01 10:03:11;;;;;;;6.33;2.05;;;;;;;25.55;57.14;98761.95;1759008;79;21056;-62
2021/07/01 10:05:38;;;;;;;3.75;2.15;;;;;;;25.28;56.70;98762.72;1764425;79;20996;-62
2021/07/01 10:08:06;;;;;;;6.45;2.08;;;;;;;25.35;56.79;98768.97;1760765;80;20919;-62
2021/07/01 10:10:52;;;;;;;5.08;1.77;;;;;;;25.42;56.61;98772.52;1756163;79;20960;-62
2021/07/01 10:13:20;;;;;;;11.33;2.00;;;;;;;25.38;56.15;98772.08;1755351;79;21781;-62
2021/07/01 10:15:50;;;;;;;4.15;1.92;;;;;;;25.46;56.30;98775.14;1746651;79;21641;-62
2021/07/01 10:18:23;;;;;;;2.58;1.75;;;;;;;25.41;55.68;98774.87;1748881;79;21595;-62
2021/07/01 10:20:55;;;;;;;2.58;1.67;;;;;;;25.45;56.13;98772.95;1751590;79;21008;-63
2021/07/01 10:23:33;;;;;;;1.92;1.70;;;;;;;25.45;55.64;98776.14;1763475;80;21532;-62
2021/07/01 10:26:04;;;;;;;3.58;1.50;;;;;;;25.46;55.42;98776.48;1752152;80;21488;-62
2021/07/01 10:28:31;;;;;;;3.85;1.67;;;;;;;25.57;55.30;98778.63;1752268;80;20989;-62
2021/07/01 10:31:01;;;;;;;;;;;;;;;25.60;54.84;98783.59;1753851;79;21686;-62
2021/07/01 10:33:31;;;;;;;8.78;2.17;;;;;;;25.46;54.39;98792.52;1755361;79;20462;-62
2021/07/01 10:36:03;;;;;;;6.28;1.90;;;;;;;25.49;54.78;98786.78;1732513;80;20997;-63
2021/07/01 10:38:42;;;;;;;5.53;1.72;;;;;;;25.47;54.49;98791.48;1736438;80;21101;-64
2021/07/01 10:41:10;;;;;;;6.75;1.52;;;;;;;25.43;54.40;98788.38;1749654;79;20997;-63
2021/07/01 10:43:58;;;;;;;2.72;1.70;;;;;;;25.80;54.75;98793.64;1754385;80;21019;-63
2021/07/01 10:46:45;;;;;;;5.12;2.17;;;;;;;25.84;53.40;98794.92;1716197;81;20984;-64
2021/07/01 10:49:13;;;;;;;3.58;1.92;;;;;;;25.38;53.18;98793.97;1692977;81;21068;-63
2021/07/01 10:51:59;;;;;;;4.85;2.02;;;;;;;24.96;53.41;98796.87;1704598;82;21144;-63
2021/07/01 10:54:26;;;;;;;1.70;1.32;;;;;;;24.96;53.82;98798.20;1707217;81;20987;-63
2021/07/01 10:57:04;;;;;;;4.05;1.60;;;;;;;25.28;53.53;98793.44;1713025;81;21187;-64
2021/07/01 10:59:53;;;;;;;1.90;1.80;;;;;;;25.27;53.26;98794.47;1701600;81;22086;-63
2021/07/01 11:02:32;;;;;;;14.07;1.98;;;;;;;25.31;53.15;98799.73;1666947;83;20985;-62
2021/07/01 11:05:04;;;;;;;9.45;2.25;;;;;;;25.25;53.16;98799.17;1691773;81;22458;-62
2021/07/01 11:07:46;;;;;;;4.92;1.95;;;;;;;25.32;52.97;98800.05;1719788;81;21002;-62
2021/07/01 11:10:14;;;;;;;5.37;2.20;;;;;;;25.41;53.04;98803.76;1721738;81;21048;-63
2021/07/01 11:12:47;;;;;;;16.82;2.20;;;;;;;25.32;52.72;98802.23;1706114;81;20938;-65
2021/07/01 11:15:15;;;;;;;11.15;2.58;;;;;;;25.46;52.54;98805.88;1727423;81;20969;-64
2021/07/01 11:17:44;;;;;;;5.10;1.85;;;;;;;25.49;52.28;98808.16;1731447;81;21942;-64
2021/07/01 11:20:16;;;;;;;2.87;1.65;;;;;;;25.50;52.11;98811.66;1658307;82;21006;-64
2021/07/01 11:22:49;;;;;;;5.47;2.62;;;;;;;25.39;51.77;98812.98;1686619;82;21048;-63
2021/07/01 11:25:34;;;;;;;7.83;2.27;;;;;;;25.08;51.79;98824.73;1706626;81;21639;-63
2021/07/01 11:28:21;;;;;;;2.47;1.80;;;;;;;24.92;51.79;98819.60;1712090;81;20958;-62
2021/07/01 11:30:55;;;;;;;5.15;2.35;;;;;;;24.71;51.84;98818.53;1708623;81;21122;-62
2021/07/01 11:33:23;;;;;;;4.80;1.80;;;;;;;24.94;52.50;98814.91;1701175;81;21059;-63
2021/07/01 11:36:12;;;;;;;2.35;1.70;;;;;;;25.33;52.09;98816.42;1716921;81;21049;-62
2021/07/01 11:38:40;;;;;;;3.02;2.10;;;;;;;25.10;51.35;98817.38;1707947;81;21119;-63
2021/07/01 11:41:08;;;;;;;7.75;1.80;;;;;;;24.86;51.81;98820.36;1711094;81;21032;-63
2021/07/01 11:43:41;;;;;;;6.53;2.00;;;;;;;24.93;51.62;98822.10;1715441;81;21099;-63
2021/07/01 11:46:08;;;;;;;2.27;2.08;;;;;;;24.93;51.69;98818.61;1708998;81;21039;-64
2021/07/01 11:48:36;;;;;;;3.25;1.85;;;;;;;24.85;51.79;98826.72;1709818;81;21038;-64
2021/07/01 11:51:06;;;;;;;2.70;2.00;;;;;;;24.95;51.91;98819.23;1708026;81;21127;-63